createdAt,value
2023-05-21T00:00:32.004Z,18.75
2023-05-21T00:01:32.118Z,18.75
2023-05-21T00:02:32.264Z,18.75
2023-05-21T00:03:32.111Z,18.75
2023-05-21T00:04:32.150Z,18.74
2023-05-21T00:05:32.205Z,18.75
2023-05-21T00:07:31.997Z,18.74
2023-05-21T00:08:33.235Z,18.73
2023-05-21T00:09:33.034Z,18.74
2023-05-21T00:10:33.263Z,18.74
2023-05-21T00:11:33.279Z,18.74
2023-05-21T00:12:33.231Z,18.74
2023-05-21T00:13:33.056Z,18.74
2023-05-21T00:14:32.054Z,18.74
2023-05-21T00:15:33.277Z,18.74
2023-05-21T00:16:32.228Z,18.74
2023-05-21T00:17:32.234Z,18.74
2023-05-21T00:18:33.060Z,18.74
2023-05-21T00:19:33.187Z,18.73
2023-05-21T00:20:32.170Z,18.73
2023-05-21T00:21:33.217Z,18.73
2023-05-21T00:22:33.249Z,18.73
2023-05-21T00:23:33.302Z,18.73
2023-05-21T00:24:33.281Z,18.73
2023-05-21T00:25:33.442Z,18.72
2023-05-21T00:26:32.487Z,18.72
2023-05-21T00:27:33.377Z,18.72
2023-05-21T00:28:33.365Z,18.73
2023-05-21T00:29:32.490Z,18.72
2023-05-21T00:30:33.494Z,18.72
2023-05-21T00:31:32.464Z,18.72
2023-05-21T00:32:32.508Z,18.72
2023-05-21T00:33:33.618Z,18.71
2023-05-21T00:34:33.468Z,18.72
2023-05-21T00:35:33.632Z,18.72
2023-05-21T00:36:33.607Z,18.71
2023-05-21T00:37:33.659Z,18.72
2023-05-21T00:38:33.762Z,18.72
2023-05-21T00:39:32.594Z,18.70
2023-05-21T00:40:32.558Z,18.71
2023-05-21T00:41:32.538Z,18.70
2023-05-21T00:42:32.569Z,18.71
2023-05-21T00:43:33.572Z,18.70
2023-05-21T00:44:32.724Z,18.70
2023-05-21T00:45:33.744Z,18.69
2023-05-21T00:46:32.765Z,18.69
2023-05-21T00:47:32.710Z,18.69
2023-05-21T00:48:32.745Z,18.68
2023-05-21T00:49:32.740Z,18.68
2023-05-21T00:50:32.898Z,18.68
2023-05-21T00:51:32.850Z,18.68
2023-05-21T00:52:33.814Z,18.68
2023-05-21T00:53:33.856Z,18.68
2023-05-21T00:54:33.973Z,18.69
2023-05-21T00:55:33.932Z,18.68
2023-05-21T00:56:32.886Z,18.68
2023-05-21T00:57:34.019Z,18.69
2023-05-21T00:58:32.882Z,18.69
2023-05-21T00:59:33.945Z,18.69
2023-05-21T01:00:32.871Z,18.68
2023-05-21T01:01:32.909Z,18.70
2023-05-21T01:02:34.273Z,18.69
2023-05-21T01:03:33.056Z,18.69
2023-05-21T01:04:33.105Z,18.68
2023-05-21T01:05:33.012Z,18.67
2023-05-21T01:06:34.010Z,18.68
2023-05-21T01:07:33.093Z,18.68
2023-05-21T01:08:34.110Z,18.68
2023-05-21T01:09:32.992Z,18.68
2023-05-21T01:10:33.054Z,18.68
2023-05-21T01:11:33.181Z,18.67
2023-05-21T01:12:33.086Z,18.67
2023-05-21T01:13:33.247Z,18.66
2023-05-21T01:14:33.162Z,18.66
2023-05-21T01:15:33.313Z,18.66
2023-05-21T01:16:34.213Z,18.67
2023-05-21T01:17:34.117Z,18.66
2023-05-21T01:18:33.089Z,18.66
2023-05-21T01:19:34.166Z,18.66
2023-05-21T01:20:33.136Z,18.67
2023-05-21T01:21:33.325Z,18.66
2023-05-21T01:22:33.161Z,18.67
2023-05-21T01:23:34.250Z,18.65
2023-05-21T01:24:34.314Z,18.66
2023-05-21T01:25:34.274Z,18.66
2023-05-21T01:26:33.356Z,18.65
2023-05-21T01:27:33.239Z,18.66
2023-05-21T01:28:33.172Z,18.65
2023-05-21T01:29:33.133Z,18.65
2023-05-21T01:30:33.383Z,18.66
2023-05-21T01:31:33.157Z,18.66
2023-05-21T01:32:33.308Z,18.66
2023-05-21T01:33:34.265Z,18.66
2023-05-21T01:34:33.178Z,18.65
2023-05-21T01:35:33.178Z,18.66
2023-05-21T01:36:34.278Z,18.65
2023-05-21T01:37:33.426Z,18.66
2023-05-21T01:38:33.326Z,18.66
2023-05-21T01:39:33.212Z,18.66
2023-05-21T01:40:34.279Z,18.65
2023-05-21T01:41:34.326Z,18.65
2023-05-21T01:42:34.220Z,18.65
2023-05-21T01:43:33.316Z,18.65
2023-05-21T01:44:33.361Z,18.64
2023-05-21T01:45:34.490Z,18.64
2023-05-21T01:46:33.365Z,18.65
2023-05-21T01:47:33.268Z,18.64
2023-05-21T01:48:33.350Z,18.65
2023-05-21T01:49:33.412Z,18.65
2023-05-21T01:50:33.329Z,18.64
2023-05-21T01:51:33.324Z,18.64
2023-05-21T01:52:33.332Z,18.65
2023-05-21T01:53:33.319Z,18.64
2023-05-21T01:54:33.326Z,18.64
2023-05-21T01:55:34.685Z,18.64
2023-05-21T01:56:33.437Z,18.63
2023-05-21T01:57:33.492Z,18.64
2023-05-21T01:58:34.435Z,18.63
2023-05-21T01:59:33.519Z,18.63
2023-05-21T02:00:34.360Z,18.64
2023-05-21T02:01:34.531Z,18.63
2023-05-21T02:02:34.447Z,18.64
2023-05-21T02:03:34.663Z,18.63
2023-05-21T02:04:34.442Z,18.63
2023-05-21T02:05:34.591Z,18.63
2023-05-21T02:06:33.421Z,18.63
2023-05-21T02:07:34.440Z,18.62
2023-05-21T02:08:33.472Z,18.62
2023-05-21T02:09:34.512Z,18.63
2023-05-21T02:10:34.693Z,18.61
2023-05-21T02:11:33.717Z,18.62
2023-05-21T02:12:34.548Z,18.62
2023-05-21T02:13:34.556Z,18.62
2023-05-21T02:14:33.512Z,18.62
2023-05-21T02:15:35.128Z,18.61
2023-05-21T02:16:33.744Z,18.61
2023-05-21T02:17:34.567Z,18.61
2023-05-21T02:18:34.743Z,18.61
2023-05-21T02:19:33.710Z,18.61
2023-05-21T02:20:34.579Z,18.61
2023-05-21T02:21:34.595Z,18.61
2023-05-21T02:22:34.662Z,18.61
2023-05-21T02:23:34.743Z,18.61
2023-05-21T02:24:34.821Z,18.62
2023-05-21T02:25:34.741Z,18.61
2023-05-21T02:26:33.631Z,18.61
2023-05-21T02:27:33.674Z,18.61
2023-05-21T02:28:33.785Z,18.60
2023-05-21T02:29:33.653Z,18.60
2023-05-21T02:30:33.722Z,18.61
2023-05-21T02:31:33.697Z,18.61
2023-05-21T02:32:34.668Z,18.60
2023-05-21T02:33:34.824Z,18.60
2023-05-21T02:34:33.938Z,18.60
2023-05-21T02:35:33.868Z,18.59
2023-05-21T02:36:33.905Z,18.60
2023-05-21T02:37:33.730Z,18.60
2023-05-21T02:38:33.870Z,18.60
2023-05-21T02:39:34.928Z,18.60
2023-05-21T02:40:33.896Z,18.60
2023-05-21T02:41:34.954Z,18.60
2023-05-21T02:42:33.777Z,18.60
2023-05-21T02:43:35.000Z,18.60
2023-05-21T02:44:33.792Z,18.60
2023-05-21T02:45:35.226Z,18.59
2023-05-21T02:46:33.878Z,18.59
2023-05-21T02:47:33.899Z,18.59
2023-05-21T02:48:33.961Z,18.59
2023-05-21T02:49:33.866Z,18.59
2023-05-21T02:50:34.897Z,18.58
2023-05-21T02:51:34.876Z,18.58
2023-05-21T02:52:34.029Z,18.59
2023-05-21T02:53:34.953Z,18.58
2023-05-21T02:54:33.997Z,18.58
2023-05-21T02:55:35.684Z,18.58
2023-05-21T02:56:35.086Z,18.58
2023-05-21T02:57:33.897Z,18.58
2023-05-21T02:58:33.935Z,18.58
2023-05-21T02:59:35.137Z,18.58
2023-05-21T03:00:35.153Z,18.58
2023-05-21T03:01:34.052Z,18.58
2023-05-21T03:02:34.061Z,18.58
2023-05-21T03:03:34.126Z,18.58
2023-05-21T03:04:33.984Z,18.58
2023-05-21T03:05:34.118Z,18.57
2023-05-21T03:06:34.016Z,18.58
2023-05-21T03:07:35.058Z,18.58
2023-05-21T03:08:34.089Z,18.58
2023-05-21T03:09:34.080Z,18.57
2023-05-21T03:10:34.136Z,18.57
2023-05-21T03:11:34.335Z,18.58
2023-05-21T03:12:34.373Z,18.57
2023-05-21T03:13:35.195Z,18.58
2023-05-21T03:14:35.128Z,18.58
2023-05-21T03:15:34.274Z,18.57
2023-05-21T03:16:35.347Z,18.57
2023-05-21T03:17:34.191Z,18.57
2023-05-21T03:18:34.238Z,18.56
2023-05-21T03:19:35.151Z,18.57
2023-05-21T03:20:34.297Z,18.56
2023-05-21T03:21:35.193Z,18.56
2023-05-21T03:22:35.211Z,18.56
2023-05-21T03:23:34.185Z,18.56
2023-05-21T03:24:34.210Z,18.56
2023-05-21T03:25:35.493Z,18.56
2023-05-21T03:26:34.275Z,18.56
2023-05-21T03:27:34.300Z,18.56
2023-05-21T03:28:35.410Z,18.55
2023-05-21T03:29:34.384Z,18.56
2023-05-21T03:30:34.478Z,18.56
2023-05-21T03:31:34.396Z,18.56
2023-05-21T03:32:35.588Z,18.56
2023-05-21T03:33:34.418Z,18.55
2023-05-21T03:34:34.598Z,18.57
2023-05-21T03:35:34.637Z,18.56
2023-05-21T03:36:34.412Z,18.56
2023-05-21T03:37:35.400Z,18.55
2023-05-21T03:38:35.965Z,18.56
2023-05-21T03:39:34.637Z,18.56
2023-05-21T03:40:34.674Z,18.55
2023-05-21T03:41:35.722Z,18.55
2023-05-21T03:42:34.665Z,18.55
2023-05-21T03:43:34.796Z,18.56
2023-05-21T03:44:34.765Z,18.55
2023-05-21T03:45:34.827Z,18.55
2023-05-21T03:46:36.077Z,18.55
2023-05-21T03:47:34.960Z,18.55
2023-05-21T03:48:34.699Z,18.56
2023-05-21T03:49:34.720Z,18.56
2023-05-21T03:50:34.794Z,18.55
2023-05-21T03:51:34.727Z,18.55
2023-05-21T03:52:35.745Z,18.55
2023-05-21T03:53:34.841Z,18.55
2023-05-21T03:54:35.890Z,18.55
2023-05-21T03:55:34.930Z,18.55
2023-05-21T03:56:34.868Z,18.55
2023-05-21T03:57:34.909Z,18.55
2023-05-21T03:58:34.921Z,18.55
2023-05-21T03:59:35.937Z,18.55
2023-05-21T04:00:34.928Z,18.54
2023-05-21T04:01:34.980Z,18.54
2023-05-21T04:02:36.089Z,18.54
2023-05-21T04:03:35.195Z,18.54
2023-05-21T04:04:36.085Z,18.54
2023-05-21T04:05:35.175Z,18.54
2023-05-21T04:06:36.064Z,18.53
2023-05-21T04:07:35.016Z,18.53
2023-05-21T04:08:35.207Z,18.54
2023-05-21T04:09:36.794Z,18.54
2023-05-21T04:10:35.999Z,18.54
2023-05-21T04:11:35.056Z,18.54
2023-05-21T04:12:35.011Z,18.54
2023-05-21T04:13:35.058Z,18.54
2023-05-21T04:14:36.149Z,18.54
2023-05-21T04:15:36.456Z,18.54
2023-05-21T04:16:36.310Z,18.54
2023-05-21T04:17:35.398Z,18.54
2023-05-21T04:18:36.127Z,18.55
2023-05-21T04:19:36.356Z,18.54
2023-05-21T04:20:36.194Z,18.54
2023-05-21T04:21:36.373Z,18.54
2023-05-21T04:22:35.308Z,18.54
2023-05-21T04:23:35.272Z,18.54
2023-05-21T04:24:35.504Z,18.53
2023-05-21T04:25:36.540Z,18.54
2023-05-21T04:26:35.525Z,18.53
2023-05-21T04:27:35.522Z,18.55
2023-05-21T04:28:35.593Z,18.54
2023-05-21T04:29:35.683Z,18.54
2023-05-21T04:30:35.474Z,18.54
2023-05-21T04:31:36.535Z,18.54
2023-05-21T04:32:35.694Z,18.54
2023-05-21T04:33:35.774Z,18.54
2023-05-21T04:34:36.605Z,18.54
2023-05-21T04:35:36.915Z,18.54
2023-05-21T04:36:35.560Z,18.55
2023-05-21T04:37:36.633Z,18.54
2023-05-21T04:38:36.588Z,18.55
2023-05-21T04:39:36.593Z,18.54
2023-05-21T04:40:36.856Z,18.54
2023-05-21T04:41:36.659Z,18.54
2023-05-21T04:42:36.635Z,18.55
2023-05-21T04:43:35.630Z,18.54
2023-05-21T04:44:36.667Z,18.54
2023-05-21T04:45:36.926Z,18.55
2023-05-21T04:46:35.738Z,18.55
2023-05-21T04:47:36.079Z,18.54
2023-05-21T04:48:35.959Z,18.54
2023-05-21T04:49:36.825Z,18.55
2023-05-21T04:50:36.723Z,18.56
2023-05-21T04:51:35.776Z,18.54
2023-05-21T04:52:36.981Z,18.55
2023-05-21T04:53:36.935Z,18.55
2023-05-21T04:54:36.772Z,18.55
2023-05-21T04:55:35.996Z,18.55
2023-05-21T04:56:36.863Z,18.55
2023-05-21T04:57:36.836Z,18.55
2023-05-21T04:58:37.013Z,18.55
2023-05-21T04:59:36.941Z,18.55
2023-05-21T05:00:35.991Z,18.56
2023-05-21T05:01:36.874Z,18.55
2023-05-21T05:02:35.947Z,18.56
2023-05-21T05:03:37.200Z,18.56
2023-05-21T05:04:36.087Z,18.55
2023-05-21T05:05:36.213Z,18.55
2023-05-21T05:06:37.107Z,18.55
2023-05-21T05:07:35.931Z,18.56
2023-05-21T05:08:36.977Z,18.56
2023-05-21T05:09:37.087Z,18.55
2023-05-21T05:10:37.158Z,18.55
2023-05-21T05:11:36.007Z,18.56
2023-05-21T05:12:36.080Z,18.55
2023-05-21T05:13:37.123Z,18.56
2023-05-21T05:14:36.240Z,18.55
2023-05-21T05:15:36.622Z,18.55
2023-05-21T05:16:37.252Z,18.56
2023-05-21T05:17:37.101Z,18.55
2023-05-21T05:18:36.094Z,18.55
2023-05-21T05:19:37.200Z,18.55
2023-05-21T05:20:37.134Z,18.55
2023-05-21T05:21:36.142Z,18.55
2023-05-21T05:22:36.275Z,18.55
2023-05-21T05:23:36.248Z,18.56
2023-05-21T05:24:36.227Z,18.56
2023-05-21T05:25:37.406Z,18.55
2023-05-21T05:26:36.294Z,18.56
2023-05-21T05:27:37.783Z,18.56
2023-05-21T05:28:37.332Z,18.56
2023-05-21T05:29:37.335Z,18.56
2023-05-21T05:30:36.524Z,18.55
2023-05-21T05:31:37.359Z,18.57
2023-05-21T05:32:36.374Z,18.56
2023-05-21T05:33:36.399Z,18.56
2023-05-21T05:34:36.434Z,18.56
2023-05-21T05:35:36.599Z,18.57
2023-05-21T05:36:36.434Z,18.57
2023-05-21T05:37:36.563Z,18.57
2023-05-21T05:38:37.615Z,18.57
2023-05-21T05:39:37.518Z,18.57
2023-05-21T05:40:37.485Z,18.58
2023-05-21T05:41:37.524Z,18.58
2023-05-21T05:42:36.636Z,18.57
2023-05-21T05:43:36.663Z,18.57
2023-05-21T05:44:37.554Z,18.58
2023-05-21T05:45:36.914Z,18.58
2023-05-21T05:46:36.625Z,18.58
2023-05-21T05:47:37.628Z,18.59
2023-05-21T05:48:37.605Z,18.59
2023-05-21T05:49:36.690Z,18.59
2023-05-21T05:50:37.641Z,18.60
2023-05-21T05:51:36.724Z,18.60
2023-05-21T05:52:37.822Z,18.61
2023-05-21T05:53:37.630Z,18.60
2023-05-21T05:54:36.618Z,18.60
2023-05-21T05:55:37.480Z,18.61
2023-05-21T05:56:37.789Z,18.61
2023-05-21T05:57:36.831Z,18.62
2023-05-21T05:58:37.625Z,18.61
2023-05-21T05:59:37.782Z,18.61
2023-05-21T06:00:36.654Z,18.61
2023-05-21T06:01:37.778Z,18.61
2023-05-21T06:02:37.849Z,18.61
2023-05-21T06:03:37.825Z,18.61
2023-05-21T06:04:36.778Z,18.61
2023-05-21T06:05:38.046Z,18.62
2023-05-21T06:06:36.747Z,18.63
2023-05-21T06:07:36.812Z,18.63
2023-05-21T06:08:38.322Z,18.62
2023-05-21T06:09:37.862Z,18.63
2023-05-21T06:10:36.850Z,18.62
2023-05-21T06:11:38.027Z,18.62
2023-05-21T06:12:36.782Z,18.63
2023-05-21T06:13:36.783Z,18.63
2023-05-21T06:14:37.846Z,18.63
2023-05-21T06:15:38.067Z,18.63
2023-05-21T06:16:37.969Z,18.64
2023-05-21T06:17:36.927Z,18.63
2023-05-21T06:18:36.873Z,18.65
2023-05-21T06:19:37.872Z,18.64
2023-05-21T06:20:37.982Z,18.65
2023-05-21T06:21:36.945Z,18.65
2023-05-21T06:22:36.859Z,18.66
2023-05-21T06:23:36.874Z,18.65
2023-05-21T06:24:36.901Z,18.66
2023-05-21T06:25:38.347Z,18.66
2023-05-21T06:26:37.901Z,18.66
2023-05-21T06:27:37.928Z,18.67
2023-05-21T06:28:37.941Z,18.67
2023-05-21T06:29:36.961Z,18.67
2023-05-21T06:30:36.964Z,18.67
2023-05-21T06:31:38.030Z,18.67
2023-05-21T06:32:37.142Z,18.67
2023-05-21T06:33:38.216Z,18.68
2023-05-21T06:34:37.056Z,18.68
2023-05-21T06:35:37.478Z,18.68
2023-05-21T06:36:37.224Z,18.69
2023-05-21T06:37:38.166Z,18.69
2023-05-21T06:38:37.135Z,18.69
2023-05-21T06:39:37.146Z,18.70
2023-05-21T06:40:38.169Z,18.70
2023-05-21T06:41:37.322Z,18.70
2023-05-21T06:42:37.164Z,18.70
2023-05-21T06:43:38.187Z,18.70
2023-05-21T06:44:38.315Z,18.71
2023-05-21T06:45:38.590Z,18.71
2023-05-21T06:46:38.353Z,18.72
2023-05-21T06:47:37.422Z,18.72
2023-05-21T06:48:37.359Z,18.72
2023-05-21T06:49:38.451Z,18.72
2023-05-21T06:50:38.395Z,18.72
2023-05-21T06:51:38.308Z,18.72
2023-05-21T06:52:38.467Z,18.73
2023-05-21T06:53:37.280Z,18.73
2023-05-21T06:54:38.289Z,18.74
2023-05-21T06:55:38.682Z,18.73
2023-05-21T06:56:38.382Z,18.74
2023-05-21T06:57:37.451Z,18.73
2023-05-21T06:58:37.354Z,18.74
2023-05-21T06:59:37.409Z,18.74
2023-05-21T07:00:38.575Z,18.74
2023-05-21T07:01:37.483Z,18.74
2023-05-21T07:02:37.552Z,18.74
2023-05-21T07:03:37.564Z,18.74
2023-05-21T07:04:38.466Z,18.74
2023-05-21T07:05:38.863Z,18.75
2023-05-21T07:06:38.637Z,18.74
2023-05-21T07:07:38.530Z,18.75
2023-05-21T07:08:37.588Z,18.75
2023-05-21T07:09:37.526Z,18.75
2023-05-21T07:10:38.635Z,18.75
2023-05-21T07:11:37.694Z,18.76
2023-05-21T07:12:38.839Z,18.75
2023-05-21T07:13:37.586Z,18.75
2023-05-21T07:14:38.662Z,18.76
2023-05-21T07:15:37.885Z,18.75
2023-05-21T07:16:38.796Z,18.75
2023-05-21T07:17:37.832Z,18.76
2023-05-21T07:18:37.650Z,18.75
2023-05-21T07:19:38.803Z,18.76
2023-05-21T07:20:37.699Z,18.76
2023-05-21T07:21:37.654Z,18.76
2023-05-21T07:22:38.743Z,18.76
2023-05-21T07:23:37.776Z,18.77
2023-05-21T07:24:38.942Z,18.76
2023-05-21T07:25:38.863Z,18.76
2023-05-21T07:26:37.765Z,18.77
2023-05-21T07:27:38.788Z,18.77
2023-05-21T07:28:38.892Z,18.77
2023-05-21T07:29:37.972Z,18.77
2023-05-21T07:30:38.842Z,18.76
2023-05-21T07:31:38.970Z,18.77
2023-05-21T07:32:38.971Z,18.77
2023-05-21T07:33:38.129Z,18.77
2023-05-21T07:34:38.008Z,18.77
2023-05-21T07:35:38.398Z,18.78
2023-05-21T07:36:38.052Z,18.77
2023-05-21T07:37:38.250Z,18.78
2023-05-21T07:38:38.132Z,18.78
2023-05-21T07:39:38.979Z,18.78
2023-05-21T07:40:38.103Z,18.78
2023-05-21T07:41:37.979Z,18.78
2023-05-21T07:42:38.017Z,18.79
2023-05-21T07:43:38.213Z,18.79
2023-05-21T07:44:38.090Z,18.79
2023-05-21T07:45:38.266Z,18.79
2023-05-21T07:46:38.104Z,18.79
2023-05-21T07:47:39.124Z,18.80
2023-05-21T07:48:38.386Z,18.80
2023-05-21T07:49:39.094Z,18.80
2023-05-21T07:50:38.139Z,18.80
2023-05-21T07:51:39.105Z,18.79
2023-05-21T07:52:38.193Z,18.80
2023-05-21T07:53:38.196Z,18.80
2023-05-21T07:54:38.325Z,18.81
2023-05-21T07:55:39.339Z,18.80
2023-05-21T07:56:38.195Z,18.81
2023-05-21T07:57:39.210Z,18.81
2023-05-21T07:58:39.577Z,18.82
2023-05-21T07:59:38.372Z,18.82
2023-05-21T08:00:39.347Z,18.81
2023-05-21T08:01:38.303Z,18.81
2023-05-21T08:02:38.333Z,18.81
2023-05-21T08:03:38.394Z,18.83
2023-05-21T08:04:40.928Z,18.83
2023-05-21T08:05:39.569Z,18.82
2023-05-21T08:06:39.305Z,18.82
2023-05-21T08:07:38.342Z,18.83
2023-05-21T08:08:39.262Z,18.84
2023-05-21T08:09:39.273Z,18.83
2023-05-21T08:10:38.195Z,18.84
2023-05-21T08:11:38.282Z,18.84
2023-05-21T08:12:38.187Z,18.84
2023-05-21T08:13:38.316Z,18.84
2023-05-21T08:14:38.351Z,18.84
2023-05-21T08:15:38.437Z,18.85
2023-05-21T08:16:38.421Z,18.85
2023-05-21T08:17:39.285Z,18.85
2023-05-21T08:18:38.363Z,18.85
2023-05-21T08:19:38.232Z,18.86
2023-05-21T08:20:38.157Z,18.86
2023-05-21T08:21:38.270Z,18.86
2023-05-21T08:22:39.335Z,18.86
2023-05-21T08:23:38.193Z,18.86
2023-05-21T08:24:39.109Z,18.86
2023-05-21T08:25:38.351Z,18.86
2023-05-21T08:26:38.092Z,18.86
2023-05-21T08:27:38.115Z,18.86
2023-05-21T08:28:38.072Z,18.86
2023-05-21T08:29:39.059Z,18.86
2023-05-21T08:30:39.086Z,18.86
2023-05-21T08:31:38.076Z,18.86
2023-05-21T08:32:38.145Z,18.87
2023-05-21T08:33:38.238Z,18.87
2023-05-21T08:34:39.269Z,18.86
2023-05-21T08:35:38.284Z,18.87
2023-05-21T08:36:38.096Z,18.87
2023-05-21T08:37:38.190Z,18.87
2023-05-21T08:38:39.010Z,18.87
2023-05-21T08:39:39.074Z,18.86
2023-05-21T08:40:38.232Z,18.86
2023-05-21T08:41:39.175Z,18.87
2023-05-21T08:42:38.094Z,18.87
2023-05-21T08:43:39.098Z,18.86
2023-05-21T08:44:38.958Z,18.86
2023-05-21T08:45:39.534Z,18.87
2023-05-21T08:46:38.003Z,18.87
2023-05-21T08:47:38.031Z,18.86
2023-05-21T08:48:39.244Z,18.86
2023-05-21T08:49:38.949Z,18.86
2023-05-21T08:50:37.917Z,18.87
2023-05-21T08:51:37.953Z,18.87
2023-05-21T08:52:37.954Z,18.86
2023-05-21T08:53:38.923Z,18.87
2023-05-21T08:54:38.914Z,18.87
2023-05-21T08:55:38.147Z,18.87
2023-05-21T08:56:38.905Z,18.88
2023-05-21T08:57:38.897Z,18.87
2023-05-21T08:58:37.899Z,18.87
2023-05-21T08:59:39.075Z,18.88
2023-05-21T09:00:39.032Z,18.87
2023-05-21T09:01:37.988Z,18.88
2023-05-21T09:02:38.017Z,18.88
2023-05-21T09:03:38.077Z,18.88
2023-05-21T09:04:38.162Z,18.87
2023-05-21T09:05:39.072Z,18.88
2023-05-21T09:06:39.137Z,18.88
2023-05-21T09:07:38.157Z,18.88
2023-05-21T09:08:39.078Z,18.88
2023-05-21T09:09:39.185Z,18.89
2023-05-21T09:10:38.139Z,18.88
2023-05-21T09:11:38.191Z,18.89
2023-05-21T09:12:38.223Z,18.88
2023-05-21T09:13:39.324Z,18.88
2023-05-21T09:14:39.211Z,18.88
2023-05-21T09:15:38.464Z,18.88
2023-05-21T09:16:38.277Z,18.88
2023-05-21T09:17:39.359Z,18.88
2023-05-21T09:18:38.301Z,18.88
2023-05-21T09:19:38.299Z,18.88
2023-05-21T09:20:38.572Z,18.88
2023-05-21T09:21:39.340Z,18.88
2023-05-21T09:22:38.386Z,18.88
2023-05-21T09:23:39.476Z,18.88
2023-05-21T09:24:39.411Z,18.88
2023-05-21T09:25:38.750Z,18.89
2023-05-21T09:26:38.568Z,18.88
2023-05-21T09:27:39.668Z,18.89
2023-05-21T09:28:39.526Z,18.89
2023-05-21T09:29:39.675Z,18.89
2023-05-21T09:30:39.837Z,18.89
2023-05-21T09:31:39.667Z,18.89
2023-05-21T09:32:38.800Z,18.89
2023-05-21T09:33:39.600Z,18.90
2023-05-21T09:34:38.664Z,18.90
2023-05-21T09:35:39.731Z,18.91
2023-05-21T09:36:39.813Z,18.91
2023-05-21T09:37:38.856Z,18.91
2023-05-21T09:38:38.735Z,18.91
2023-05-21T09:39:38.788Z,18.92
2023-05-21T09:40:38.971Z,18.92
2023-05-21T09:41:38.930Z,18.91
2023-05-21T09:42:39.757Z,18.92
2023-05-21T09:43:38.863Z,18.92
2023-05-21T09:44:38.936Z,18.92
2023-05-21T09:45:39.913Z,18.93
2023-05-21T09:46:39.927Z,18.94
2023-05-21T09:47:39.995Z,18.93
2023-05-21T09:48:38.936Z,18.93
2023-05-21T09:49:39.044Z,18.93
2023-05-21T09:50:40.031Z,18.94
2023-05-21T09:51:40.158Z,18.94
2023-05-21T09:52:41.406Z,18.95
2023-05-21T09:53:38.933Z,18.95
2023-05-21T09:54:38.964Z,18.96
2023-05-21T09:55:38.920Z,18.96
2023-05-21T09:56:38.921Z,18.96
2023-05-21T09:57:38.997Z,18.97
2023-05-21T09:58:38.914Z,18.98
2023-05-21T09:59:38.908Z,18.97
2023-05-21T10:00:39.936Z,18.97
2023-05-21T10:01:39.028Z,18.98
2023-05-21T10:02:39.169Z,18.99
2023-05-21T10:03:38.885Z,18.98
2023-05-21T10:04:39.041Z,18.99
2023-05-21T10:05:39.862Z,18.99
2023-05-21T10:06:40.031Z,19.00
2023-05-21T10:07:39.030Z,19.00
2023-05-21T10:08:39.058Z,19.01
2023-05-21T10:09:39.994Z,19.01
2023-05-21T10:10:39.975Z,19.00
2023-05-21T10:11:39.082Z,19.00
2023-05-21T10:12:38.820Z,19.02
2023-05-21T10:13:39.922Z,19.02
2023-05-21T10:14:38.802Z,19.02
2023-05-21T10:15:38.791Z,19.02
2023-05-21T10:16:39.890Z,19.02
2023-05-21T10:17:38.885Z,19.01
2023-05-21T10:18:38.770Z,19.02
2023-05-21T10:19:39.801Z,19.02
2023-05-21T10:20:39.118Z,19.03
2023-05-21T10:21:38.867Z,19.03
2023-05-21T10:22:38.768Z,19.03
2023-05-21T10:23:38.726Z,19.04
2023-05-21T10:24:38.753Z,19.03
2023-05-21T10:25:38.919Z,19.04
2023-05-21T10:26:39.796Z,19.04
2023-05-21T10:27:38.798Z,19.04
2023-05-21T10:28:38.763Z,19.04
2023-05-21T10:29:39.816Z,19.05
2023-05-21T10:30:39.939Z,19.05
2023-05-21T10:31:39.810Z,19.06
2023-05-21T10:32:38.937Z,19.05
2023-05-21T10:33:39.652Z,19.05
2023-05-21T10:34:38.682Z,19.06
2023-05-21T10:35:39.766Z,19.05
2023-05-21T10:36:38.773Z,19.05
2023-05-21T10:37:39.675Z,19.06
2023-05-21T10:38:38.690Z,19.06
2023-05-21T10:39:38.688Z,19.07
2023-05-21T10:40:38.955Z,19.08
2023-05-21T10:41:39.717Z,19.07
2023-05-21T10:42:38.653Z,19.07
2023-05-21T10:43:38.620Z,19.08
2023-05-21T10:44:38.619Z,19.08
2023-05-21T10:45:39.619Z,19.07
2023-05-21T10:46:38.593Z,19.08
2023-05-21T10:47:38.802Z,19.08
2023-05-21T10:48:38.675Z,19.09
2023-05-21T10:49:39.607Z,19.08
2023-05-21T10:50:38.787Z,19.08
2023-05-21T10:51:38.653Z,19.08
2023-05-21T10:52:38.560Z,19.08
2023-05-21T10:53:39.565Z,19.08
2023-05-21T10:54:38.641Z,19.09
2023-05-21T10:55:38.591Z,19.09
2023-05-21T10:56:39.710Z,19.09
2023-05-21T10:57:39.511Z,19.10
2023-05-21T10:58:38.496Z,19.09
2023-05-21T10:59:39.519Z,19.10
2023-05-21T11:00:38.690Z,19.11
2023-05-21T11:01:39.808Z,19.11
2023-05-21T11:02:38.708Z,19.11
2023-05-21T11:03:39.730Z,19.11
2023-05-21T11:04:40.555Z,19.11
2023-05-21T11:05:39.572Z,19.11
2023-05-21T11:06:39.441Z,19.11
2023-05-21T11:07:39.466Z,19.11
2023-05-21T11:08:38.611Z,19.11
2023-05-21T11:09:38.424Z,19.12
2023-05-21T11:10:38.787Z,19.12
2023-05-21T11:11:38.593Z,19.13
2023-05-21T11:12:38.442Z,19.12
2023-05-21T11:13:39.415Z,19.12
2023-05-21T11:14:39.833Z,19.12
2023-05-21T11:15:39.380Z,19.14
2023-05-21T11:16:39.448Z,19.14
2023-05-21T11:17:39.413Z,19.14
2023-05-21T11:18:39.361Z,19.14
2023-05-21T11:19:38.605Z,19.14
2023-05-21T11:20:38.576Z,19.13
2023-05-21T11:21:38.339Z,19.13
2023-05-21T11:22:38.392Z,19.14
2023-05-21T11:23:39.394Z,19.14
2023-05-21T11:24:38.401Z,19.14
2023-05-21T11:25:38.451Z,19.15
2023-05-21T11:26:39.450Z,19.15
2023-05-21T11:27:38.462Z,19.16
2023-05-21T11:28:39.477Z,19.17
2023-05-21T11:29:39.466Z,19.17
2023-05-21T11:30:40.993Z,19.18
2023-05-21T11:31:38.893Z,19.18
2023-05-21T11:32:38.731Z,19.18
2023-05-21T11:33:39.680Z,19.18
2023-05-21T11:34:39.479Z,19.20
2023-05-21T11:35:38.558Z,19.20
2023-05-21T11:36:38.486Z,19.20
2023-05-21T11:37:39.512Z,19.20
2023-05-21T11:38:38.457Z,19.21
2023-05-21T11:39:38.428Z,19.22
2023-05-21T11:40:38.731Z,19.22
2023-05-21T11:41:38.603Z,19.23
2023-05-21T11:42:38.393Z,19.22
2023-05-21T11:43:39.486Z,19.21
2023-05-21T11:44:38.488Z,19.22
2023-05-21T11:45:38.426Z,19.22
2023-05-21T11:46:39.496Z,19.23
2023-05-21T11:47:39.424Z,19.23
2023-05-21T11:48:38.446Z,19.24
2023-05-21T11:49:38.455Z,19.24
2023-05-21T11:50:38.679Z,19.24
2023-05-21T11:51:38.336Z,19.24
2023-05-21T11:52:38.427Z,19.25
2023-05-21T11:53:38.319Z,19.24
2023-05-21T11:54:39.318Z,19.24
2023-05-21T11:55:38.316Z,19.24
2023-05-21T11:56:39.326Z,19.24
2023-05-21T11:57:38.294Z,19.23
2023-05-21T11:58:38.295Z,19.24
2023-05-21T11:59:38.307Z,19.25
2023-05-21T12:00:39.422Z,19.25
2023-05-21T12:01:38.459Z,19.25
2023-05-21T12:02:39.497Z,19.25
2023-05-21T12:03:39.589Z,19.26
2023-05-21T12:04:39.519Z,19.27
2023-05-21T12:05:39.619Z,19.27
2023-05-21T12:06:38.695Z,19.27
2023-05-21T12:07:38.926Z,19.27
2023-05-21T12:08:39.902Z,19.28
2023-05-21T12:09:38.905Z,19.28
2023-05-21T12:10:39.910Z,19.27
2023-05-21T12:11:39.192Z,19.26
2023-05-21T12:12:50.500Z,19.26
2023-05-21T12:13:40.053Z,19.26
2023-05-21T12:14:39.106Z,19.27
2023-05-21T12:15:40.030Z,19.26
2023-05-21T12:16:40.115Z,19.26
2023-05-21T12:17:39.147Z,19.26
2023-05-21T12:18:39.196Z,19.27
2023-05-21T12:19:40.030Z,19.26
2023-05-21T12:20:39.124Z,19.27
2023-05-21T12:21:40.165Z,19.27
2023-05-21T12:22:39.165Z,19.28
2023-05-21T12:23:39.043Z,19.28
2023-05-21T12:24:39.050Z,19.27
2023-05-21T12:25:39.329Z,19.28
2023-05-21T12:26:40.297Z,19.27
2023-05-21T12:27:39.273Z,19.26
2023-05-21T12:28:39.522Z,19.27
2023-05-21T12:29:40.423Z,19.27
2023-05-21T12:30:40.516Z,19.28
2023-05-21T12:31:39.588Z,19.28
2023-05-21T12:32:40.983Z,19.27
2023-05-21T12:33:39.731Z,19.28
2023-05-21T12:34:40.675Z,19.28
2023-05-21T12:35:39.930Z,19.28
2023-05-21T12:36:39.842Z,19.28
2023-05-21T12:37:39.993Z,19.28
2023-05-21T12:38:40.911Z,19.28
2023-05-21T12:39:40.927Z,19.29
2023-05-21T12:40:40.697Z,19.28
2023-05-21T12:41:40.173Z,19.28
2023-05-21T12:42:40.231Z,19.30
2023-05-21T12:43:41.193Z,19.30
2023-05-21T12:44:40.311Z,19.31
2023-05-21T12:45:41.492Z,19.31
2023-05-21T12:46:41.499Z,19.32
2023-05-21T12:47:41.443Z,19.32
2023-05-21T12:48:41.643Z,19.33
2023-05-21T12:49:40.651Z,19.34
2023-05-21T12:50:40.614Z,19.34
2023-05-21T12:51:40.695Z,19.34
2023-05-21T12:52:41.663Z,19.35
2023-05-21T12:53:41.859Z,19.36